Friday, November 28, 2014
12:19 UTC
  |  Log In   |  Register Free
Airport Search:

Foothills Regional Airport
(KMRN)

Foothills Regional Airport Diagram
No Airport Diagram Available

FAA data valid effective November 13, 2014 - January 08, 2015 (unless otherwise noted).

 
 
 
 
 
 
 
 
 
 
 
 
 
 

Current Aviation Weather for Foothills Regional Airport (KMRN)

The most recent METAR observation for KMRN was updated at: 1214
METAR Summary (Translated METAR)
KMRN
281155Z AUTO 00000KT 10SM CLR M04/M06 A3038 RMK AO2 T10431064 10000 21045
KHKY
281153Z 29005KT 10SM CLR M02/M09 A3033 RMK AO2 SLP270 T10221089 11006 21033 53010
(11.8 nm SE from KMRN)
KFQD
281155Z AUTO 34003KT 10SM CLR M04/M08 A3034 RMK AO2 T10361083 10001 21036
(28.3 nm SW from KMRN)
TAF Summary (Translated TAF)
KHKY
(11.8 nm SE from KMRN)
280539Z 2806/2906 32006KT P6SM SKC FM281900 25003KT P6SM FEW190 FM282300 18004KT P6SM FEW230
  Airport Weather Conditions for KMRN

 Current Weather at MRN
24° F
Fair
North winds at 0.0 mph
MRN NOAA Radar

Pressure: 30.37 in
Humidity: 89%
Wind: Calm
Dew Point: 21.4°F
Visibility: 10.00 mi


Airport Weather Forecast for KMRN

Translated METAR and TAF for KMRN
Translated METAR for KMRN (1213 UTC 28 November 2014)
found at http://aviationweather.gov/adds/metars/
 
METAR text: KMRN 281155Z AUTO 00000KT 10SM CLR M04/M06 A3038 RMK AO2 T10431064 10000 21045
Conditions at: KMRN (MORGANTON/LENOIR, NC, US) observed 1155 UTC 28 November 2014
Temperature: -4.3°C (24°F)
Dewpoint: -6.4°C (20°F) [RH = 85%]
Pressure (altimeter): 30.38 inches Hg (1028.9 mb)
Winds: calm
Visibility: 10 or more miles (16+ km)
Ceiling: at least 12,000 feet AGL
Clouds: sky clear below 12,000 feet AGL
Weather: automated observation with no human augmentation;
there may or may not be significant weather present at this time
Translated TAF for KMRN

There is no translated TAF available for this airport

Find All Airport Services Find A Hotel Find A Rental Car Find A Golf Course Find A Restaurant $100 Hamburger



FBO's on the Field
FBO Company Facility Photos Services Transportation Aviation Fuel Prices: Prices include tax
Catering Weather Repair Courtesy Rental Type 100LL JetA JetA+ MOGAS 8087
 
Foothills Aviation

This FBO has not yet been rated
FS:Shell
Last Updated: Nov-17
Login to update fuel prices
SS:
Contact Foothills AviationMore FBO Information
 
Add another FBO Facility Photos Catering Weather Repair Courtesy Rental Type 100LL JetA JetA+ MOGAS 8087
Services Transportation Aviation Fuel Prices: Prices include tax


model-print
model-print
model-print
model-print